Time;durP1;ratioP1;P1;durP2;ratioP2;P2;SDS_P1;SDS_P2;PMS_P1;PMS_P2;Temp;Humidity;BMP_temperature;BMP_pressure;BME280_temperature;BME280_humidity;BME280_pressure;Samples;Min_cycle;Max_cycle;Signal;HPM_P1;HPM_P2
2023/09/22 00:02:22;;;;;;;;;;;;;;;;;;5094699;28;19920;-60
2023/09/22 00:04:48;;;;;;;;;;;;;;;;;;5079309;28;19999;-60
2023/09/22 00:07:14;;;;;;;;;;;;;;;;;;5081351;28;19919;-60
2023/09/22 00:09:40;;;;;;;;;;;;;;;;;;5080442;28;19912;-60
2023/09/22 00:12:08;;;;;;;;;;;;;;;;;;5081529;28;20317;-60
2023/09/22 00:14:34;;;;;;;;;;;;;;;;;;5077691;28;19958;-60
2023/09/22 00:17:00;;;;;;;;;;;;;;;;;;5087845;28;20401;-61
2023/09/22 00:19:26;;;;;;;;;;;;;;;;;;5090948;28;19990;-60
2023/09/22 00:21:54;;;;;;;;;;;;;;;;;;5080889;28;19988;-57
2023/09/22 00:24:21;;;;;;;;;;;;;;;;;;5092336;28;19912;-58
2023/09/22 00:26:47;;;;;;;;;;;;;;;;;;5077578;28;19935;-57
2023/09/22 00:29:13;;;;;;;;;;;;;;;;;;5089120;28;19995;-57
2023/09/22 00:31:39;;;;;;;;;;;;;;;;;;5094934;28;19908;-60
2023/09/22 00:34:05;;;;;;;;;;;;;;;;;;5094929;28;19917;-57
2023/09/22 00:36:32;;;;;;;;;;;;;;;;;;5086453;28;19959;-57
2023/09/22 00:38:58;;;;;;;;;;;;;;;;;;5085817;28;20058;-58
2023/09/22 00:41:24;;;;;;;;;;;;;;;;;;5092631;28;20015;-58
2023/09/22 00:43:50;;;;;;;;;;;;;;;;;;5094508;28;19915;-57
2023/09/22 00:46:16;;;;;;;;;;;;;;;;;;5080822;28;20329;-60
2023/09/22 00:48:42;;;;;;;;;;;;;;;;;;5084391;28;19928;-58
2023/09/22 00:51:08;;;;;;;;;;;;;;;;;;5094285;28;19912;-56
2023/09/22 00:53:34;;;;;;;;;;;;;;;;;;5092299;28;19912;-59
2023/09/22 00:56:01;;;;;;;;;;;;;;;;;;5075654;28;19916;-59
2023/09/22 00:58:27;;;;;;;;;;;;;;;;;;5081272;28;19959;-57
2023/09/22 01:00:53;;;;;;;;;;;;;;;;;;5093460;28;19962;-59
2023/09/22 01:03:19;;;;;;;;;;;;;;;;;;5094395;28;19915;-60
2023/09/22 01:05:45;;;;;;;;;;;;;;;;;;5090539;28;19916;-57
2023/09/22 01:08:11;;;;;;;;;;;;;;;;;;5073020;28;19986;-59
2023/09/22 01:10:37;;;;;;;;;;;;;;;;;;5072937;28;19947;-59
2023/09/22 01:13:04;;;;;;;;;;;;;;;;;;5089218;28;20002;-57
2023/09/22 01:15:30;;;;;;;;;;;;;;;;;;5082966;28;20007;-57
2023/09/22 01:17:56;;;;;;;;;;;;;;;;;;5074426;28;19999;-59
2023/09/22 01:20:22;;;;;;;;;;;;;;;;;;5076782;28;19917;-59
2023/09/22 01:22:48;;;;;;;;;;;;;;;;;;5082419;28;19942;-56
2023/09/22 01:25:14;;;;;;;;;;;;;;;;;;5077898;28;19936;-58
2023/09/22 01:27:40;;;;;;;;;;;;;;;;;;5079219;28;19918;-61
2023/09/22 01:30:06;;;;;;;;;;;;;;;;;;5084029;28;19944;-59
2023/09/22 01:32:32;;;;;;;;;;;;;;;;;;5083891;28;19981;-62
2023/09/22 01:34:58;;;;;;;;;;;;;;;;;;5078634;28;19969;-61
2023/09/22 01:37:25;;;;;;;;;;;;;;;;;;5076540;28;20388;-61
2023/09/22 01:39:51;;;;;;;;;;;;;;;;;;5072841;28;19955;-62
2023/09/22 01:42:17;;;;;;;;;;;;;;;;;;5082404;28;19972;-62
2023/09/22 01:44:43;;;;;;;;;;;;;;;;;;5084602;28;20016;-62
2023/09/22 01:47:09;;;;;;;;;;;;;;;;;;5087922;28;19971;-61
2023/09/22 01:49:35;;;;;;;;;;;;;;;;;;5077584;28;20350;-61
2023/09/22 01:52:01;;;;;;;;;;;;;;;;;;5082542;28;20003;-62
2023/09/22 01:54:27;;;;;;;;;;;;;;;;;;5090719;28;19916;-62
2023/09/22 01:56:52;;;;;;;;;;;;;;;;;;5075467;28;19943;-61
2023/09/22 01:59:18;;;;;;;;;;;;;;;;;;5074376;28;19920;-61
2023/09/22 02:01:45;;;;;;;;;;;;;;;;;;5085278;28;20025;-61
2023/09/22 02:04:11;;;;;;;;;;;;;;;;;;5087261;28;19913;-60
2023/09/22 02:06:37;;;;;;;;;;;;;;;;;;5074846;28;19919;-61
2023/09/22 02:09:04;;;;;;;;;;;;;;;;;;5074544;28;19912;-61
2023/09/22 02:11:30;;;;;;;;;;;;;;;;;;5077342;28;19912;-61
2023/09/22 02:13:57;;;;;;;;;;;;;;;;;;5092583;28;20347;-62
2023/09/22 02:16:23;;;;;;;;;;;;;;;;;;5091927;28;19930;-62
2023/09/22 02:18:49;;;;;;;;;;;;;;;;;;5087767;28;19912;-62
2023/09/22 02:21:17;;;;;;;;;;;;;;;;;;5091717;28;19920;-62
2023/09/22 02:23:43;;;;;;;;;;;;;;;;;;5081926;28;19925;-61
2023/09/22 02:26:09;;;;;;;;;;;;;;;;;;5072706;28;19908;-62
2023/09/22 02:28:35;;;;;;;;;;;;;;;;;;5075575;28;20291;-61
2023/09/22 02:31:01;;;;;;;;;;;;;;;;;;5087619;28;20006;-62
2023/09/22 02:33:27;;;;;;;;;;;;;;;;;;5088773;28;19925;-62
2023/09/22 02:35:52;;;;;;;;;;;;;;;;;;5092775;28;19927;-62
2023/09/22 02:38:18;;;;;;;;;;;;;;;;;;5077360;28;19951;-61
2023/09/22 02:40:45;;;;;;;;;;;;;;;;;;5090099;28;19922;-61
2023/09/22 02:43:11;;;;;;;;;;;;;;;;;;5090968;28;19919;-60
2023/09/22 02:45:37;;;;;;;;;;;;;;;;;;5092630;28;19913;-61
2023/09/22 02:48:03;;;;;;;;;;;;;;;;;;5082252;28;19912;-61
2023/09/22 02:50:29;;;;;;;;;;;;;;;;;;5072098;28;20004;-61
2023/09/22 02:52:55;;;;;;;;;;;;;;;;;;5074083;28;20377;-61
2023/09/22 02:55:21;;;;;;;;;;;;;;;;;;5076645;28;20395;-61
2023/09/22 02:57:47;;;;;;;;;;;;;;;;;;5077204;28;19912;-61
2023/09/22 03:00:20;;;;;;;;;;;;;;;;;;5092251;28;20390;-61
2023/09/22 03:02:46;;;;;;;;;;;;;;;;;;5090933;28;19916;-61
2023/09/22 03:05:15;;;;;;;;;;;;;;;;;;5077988;28;20336;-61
2023/09/22 03:07:41;;;;;;;;;;;;;;;;;;5082037;28;19920;-61
2023/09/22 03:10:07;;;;;;;;;;;;;;;;;;5077881;28;20360;-61
2023/09/22 03:12:33;;;;;;;;;;;;;;;;;;5088493;28;19916;-61
2023/09/22 03:14:59;;;;;;;;;;;;;;;;;;5090373;28;19944;-61
2023/09/22 03:17:25;;;;;;;;;;;;;;;;;;5074137;28;19916;-61
2023/09/22 03:19:51;;;;;;;;;;;;;;;;;;5077811;28;19913;-61
2023/09/22 03:22:17;;;;;;;;;;;;;;;;;;5088071;28;19926;-61
2023/09/22 03:24:43;;;;;;;;;;;;;;;;;;5087577;28;20344;-60
2023/09/22 03:27:09;;;;;;;;;;;;;;;;;;5079906;28;19912;-60
2023/09/22 03:29:35;;;;;;;;;;;;;;;;;;5085086;28;19967;-60
2023/09/22 03:32:01;;;;;;;;;;;;;;;;;;5072669;28;19955;-60
2023/09/22 03:34:27;;;;;;;;;;;;;;;;;;5072129;28;20403;-60
2023/09/22 03:36:53;;;;;;;;;;;;;;;;;;5072995;28;19909;-61
2023/09/22 03:39:21;;;;;;;;;;;;;;;;;;5082768;28;20340;-60
2023/09/22 03:41:52;;;;;;;;;;;;;;;;;;5086085;28;20639;-60
2023/09/22 03:44:18;;;;;;;;;;;;;;;;;;5084766;28;19912;-60
2023/09/22 03:46:44;;;;;;;;;;;;;;;;;;5071981;28;19931;-60
2023/09/22 03:49:10;;;;;;;;;;;;;;;;;;5085909;28;19958;-60
2023/09/22 03:51:35;;;;;;;;;;;;;;;;;;5093417;28;20368;-58
2023/09/22 03:54:02;;;;;;;;;;;;;;;;;;5083753;28;20003;-58
2023/09/22 03:56:28;;;;;;;;;;;;;;;;;;5083946;28;20346;-59
2023/09/22 03:58:54;;;;;;;;;;;;;;;;;;5078092;28;20007;-58
2023/09/22 04:01:20;;;;;;;;;;;;;;;;;;5091821;28;19963;-59
2023/09/22 04:03:47;;;;;;;;;;;;;;;;;;5083425;28;20383;-59
2023/09/22 04:06:13;;;;;;;;;;;;;;;;;;5090721;28;19918;-58
2023/09/22 04:08:39;;;;;;;;;;;;;;;;;;5089947;28;20366;-58
2023/09/22 04:11:05;;;;;;;;;;;;;;;;;;5083069;28;19954;-58
2023/09/22 04:13:31;;;;;;;;;;;;;;;;;;5090135;28;20356;-57
2023/09/22 04:15:58;;;;;;;;;;;;;;;;;;5082697;28;19956;-58
2023/09/22 04:18:29;;;;;;;;;;;;;;;;;;5083371;28;20375;-59
2023/09/22 04:20:55;;;;;;;;;;;;;;;;;;5086938;28;19934;-59
2023/09/22 04:23:21;;;;;;;;;;;;;;;;;;5084892;28;20015;-58
2023/09/22 04:25:48;;;;;;;;;;;;;;;;;;5081989;28;20439;-58
2023/09/22 04:28:17;;;;;;;;;;;;;;;;;;5072468;28;20392;-58
2023/09/22 04:30:43;;;;;;;;;;;;;;;;;;5075176;28;20334;-58
2023/09/22 04:33:10;;;;;;;;;;;;;;;;;;5079908;28;19966;-58
2023/09/22 04:35:37;;;;;;;;;;;;;;;;;;5085757;28;19927;-57
2023/09/22 04:38:06;;;;;;;;;;;;;;;;;;5080564;28;19924;-59
2023/09/22 04:40:36;;;;;;;;;;;;;;;;;;5078095;28;19920;-60
2023/09/22 04:43:02;;;;;;;;;;;;;;;;;;5091296;28;20363;-58
2023/09/22 04:45:29;;;;;;;;;;;;;;;;;;5078041;28;19918;-58
2023/09/22 04:47:55;;;;;;;;;;;;;;;;;;5083019;28;19912;-58
2023/09/22 04:50:21;;;;;;;;;;;;;;;;;;5084002;28;20356;-59
2023/09/22 04:52:49;;;;;;;;;;;;;;;;;;5077638;28;19991;-58
2023/09/22 04:55:16;;;;;;;;;;;;;;;;;;5076976;28;20356;-58
2023/09/22 04:57:42;;;;;;;;;;;;;;;;;;5085698;28;19922;-58
2023/09/22 05:00:08;;;;;;;;;;;;;;;;;;5081007;28;19916;-60
2023/09/22 05:02:34;;;;;;;;;;;;;;;;;;5080684;28;19916;-58
2023/09/22 05:05:01;;;;;;;;;;;;;;;;;;5076953;28;19916;-58
2023/09/22 05:07:28;;;;;;;;;;;;;;;;;;5082438;28;19916;-59
2023/09/22 05:09:54;;;;;;;;;;;;;;;;;;5074753;28;20380;-58
2023/09/22 05:12:20;;;;;;;;;;;;;;;;;;5077736;28;19967;-57
2023/09/22 05:14:46;;;;;;;;;;;;;;;;;;5076871;28;20012;-58
2023/09/22 05:17:13;;;;;;;;;;;;;;;;;;5074799;28;20359;-59
2023/09/22 05:19:39;;;;;;;;;;;;;;;;;;5080102;28;19912;-58
2023/09/22 05:22:06;;;;;;;;;;;;;;;;;;5076459;28;19970;-59
2023/09/22 05:24:32;;;;;;;;;;;;;;;;;;5082264;28;19951;-57
2023/09/22 05:26:57;;;;;;;;;;;;;;;;;;5084945;28;20364;-57
2023/09/22 05:29:23;;;;;;;;;;;;;;;;;;5087240;28;19957;-58
2023/09/22 05:31:49;;;;;;;;;;;;;;;;;;5082329;28;20284;-58
2023/09/22 05:34:15;;;;;;;;;;;;;;;;;;5075783;28;20026;-58
2023/09/22 05:36:42;;;;;;;;;;;;;;;;;;5081220;28;20007;-57
2023/09/22 05:39:10;;;;;;;;;;;;;;;;;;5081586;28;20005;-57
2023/09/22 05:41:36;;;;;;;;;;;;;;;;;;5079809;28;20436;-57
2023/09/22 05:44:02;;;;;;;;;;;;;;;;;;5081690;28;20107;-58
2023/09/22 05:46:31;;;;;;;;;;;;;;;;;;5081377;28;19919;-59
2023/09/22 05:48:57;;;;;;;;;;;;;;;;;;5077877;28;20001;-57
2023/09/22 05:51:23;;;;;;;;;;;;;;;;;;5072692;28;19951;-58
2023/09/22 05:53:52;;;;;;;;;;;;;;;;;;5082251;28;20379;-57
2023/09/22 05:56:18;;;;;;;;;;;;;;;;;;5086997;28;19999;-58
2023/09/22 05:58:46;;;;;;;;;;;;;;;;;;5082674;28;20027;-58
2023/09/22 06:01:12;;;;;;;;;;;;;;;;;;5085177;28;19939;-57
2023/09/22 06:03:38;;;;;;;;;;;;;;;;;;5085159;28;19912;-58
2023/09/22 06:06:04;;;;;;;;;;;;;;;;;;5078589;28;19915;-57
2023/09/22 06:08:30;;;;;;;;;;;;;;;;;;5079792;28;19963;-58
2023/09/22 06:10:56;;;;;;;;;;;;;;;;;;5084911;28;20003;-58
2023/09/22 06:13:22;;;;;;;;;;;;;;;;;;5085491;28;19915;-57
2023/09/22 06:15:48;;;;;;;;;;;;;;;;;;5083792;28;19965;-58
2023/09/22 06:18:16;;;;;;;;;;;;;;;;;;5073221;28;19920;-58
2023/09/22 06:20:41;;;;;;;;;;;;;;;;;;5078464;28;19924;-57
2023/09/22 06:23:08;;;;;;;;;;;;;;;;;;5077959;28;20360;-58
2023/09/22 06:25:34;;;;;;;;;;;;;;;;;;5084630;28;19919;-58
2023/09/22 06:28:00;;;;;;;;;;;;;;;;;;5084261;28;19939;-57
2023/09/22 06:30:26;;;;;;;;;;;;;;;;;;5083007;28;19964;-58
2023/09/22 06:32:52;;;;;;;;;;;;;;;;;;5078191;28;19919;-57
2023/09/22 06:35:18;;;;;;;;;;;;;;;;;;5089295;28;20392;-57
2023/09/22 06:37:44;;;;;;;;;;;;;;;;;;5091893;28;19956;-57
2023/09/22 06:40:13;;;;;;;;;;;;;;;;;;5079422;28;19914;-58
2023/09/22 06:42:41;;;;;;;;;;;;;;;;;;5083251;28;19928;-58
2023/09/22 06:45:09;;;;;;;;;;;;;;;;;;5071512;28;19916;-58
2023/09/22 06:47:35;;;;;;;;;;;;;;;;;;5085353;28;19912;-58
2023/09/22 06:50:05;;;;;;;;;;;;;;;;;;5079836;28;19992;-57
2023/09/22 06:52:31;;;;;;;;;;;;;;;;;;5071743;28;19916;-58
2023/09/22 06:55:00;;;;;;;;;;;;;;;;;;5083840;28;20388;-58
2023/09/22 06:57:26;;;;;;;;;;;;;;;;;;5071284;28;19908;-58
2023/09/22 06:59:52;;;;;;;;;;;;;;;;;;5084295;28;20346;-58
2023/09/22 07:02:18;;;;;;;;;;;;;;;;;;5078023;28;19931;-57
2023/09/22 07:04:44;;;;;;;;;;;;;;;;;;5078402;28;20275;-58
2023/09/22 07:07:11;;;;;;;;;;;;;;;;;;5071216;28;19912;-59
2023/09/22 07:09:37;;;;;;;;;;;;;;;;;;5077002;28;19916;-58
2023/09/22 07:12:03;;;;;;;;;;;;;;;;;;5073123;28;19948;-58
2023/09/22 07:14:29;;;;;;;;;;;;;;;;;;5084500;28;19912;-57
2023/09/22 07:16:54;;;;;;;;;;;;;;;;;;5077984;28;20428;-57
2023/09/22 07:19:21;;;;;;;;;;;;;;;;;;5078544;28;19920;-58
2023/09/22 07:21:48;;;;;;;;;;;;;;;;;;5075446;28;19921;-59
2023/09/22 07:24:15;;;;;;;;;;;;;;;;;;5085622;28;19947;-59
2023/09/22 07:26:41;;;;;;;;;;;;;;;;;;5086628;28;19966;-59
2023/09/22 07:29:07;;;;;;;;;;;;;;;;;;5087459;28;19908;-59
2023/09/22 07:31:32;;;;;;;;;;;;;;;;;;5080331;28;19923;-59
2023/09/22 07:33:58;;;;;;;;;;;;;;;;;;5076734;28;20292;-59
2023/09/22 07:36:26;;;;;;;;;;;;;;;;;;5088272;28;19944;-59
2023/09/22 07:38:52;;;;;;;;;;;;;;;;;;5084817;28;20245;-60
2023/09/22 07:41:18;;;;;;;;;;;;;;;;;;5080878;28;19955;-59
2023/09/22 07:43:44;;;;;;;;;;;;;;;;;;5082240;28;20027;-60
2023/09/22 07:46:10;;;;;;;;;;;;;;;;;;5086598;28;19962;-59
2023/09/22 07:48:36;;;;;;;;;;;;;;;;;;5083204;28;20008;-59
2023/09/22 07:51:02;;;;;;;;;;;;;;;;;;5083805;28;19912;-59
2023/09/22 07:53:28;;;;;;;;;;;;;;;;;;5086020;28;19992;-60
2023/09/22 07:55:55;;;;;;;;;;;;;;;;;;5094448;28;19976;-59
2023/09/22 07:58:22;;;;;;;;;;;;;;;;;;5081442;28;20070;-58
2023/09/22 08:00:47;;;;;;;;;;;;;;;;;;5085053;28;20425;-59
2023/09/22 08:03:18;;;;;;;;;;;;;;;;;;5086531;28;19916;-59
2023/09/22 08:05:44;;;;;;;;;;;;;;;;;;5086667;28;19909;-59
2023/09/22 08:08:10;;;;;;;;;;;;;;;;;;5074925;28;19919;-59
2023/09/22 08:10:38;;;;;;;;;;;;;;;;;;5080852;28;19950;-59
2023/09/22 08:13:06;;;;;;;;;;;;;;;;;;5094094;28;20416;-60
2023/09/22 08:15:32;;;;;;;;;;;;;;;;;;5086601;28;19965;-59
2023/09/22 08:17:58;;;;;;;;;;;;;;;;;;5080689;28;19966;-59
2023/09/22 08:20:24;;;;;;;;;;;;;;;;;;5089710;28;20347;-59
2023/09/22 08:22:50;;;;;;;;;;;;;;;;;;5080297;28;19913;-60
2023/09/22 08:25:16;;;;;;;;;;;;;;;;;;5086892;28;19909;-59
2023/09/22 08:27:44;;;;;;;;;;;;;;;;;;5074052;28;20280;-59
2023/09/22 08:30:11;;;;;;;;;;;;;;;;;;5080191;28;19939;-60
2023/09/22 08:32:37;;;;;;;;;;;;;;;;;;5082913;28;19961;-58
2023/09/22 08:35:03;;;;;;;;;;;;;;;;;;5094054;28;20431;-57
2023/09/22 08:37:32;;;;;;;;;;;;;;;;;;5079367;28;19970;-57
2023/09/22 08:39:58;;;;;;;;;;;;;;;;;;5085201;28;19909;-58
2023/09/22 08:42:24;;;;;;;;;;;;;;;;;;5075508;28;19968;-57
2023/09/22 08:44:50;;;;;;;;;;;;;;;;;;5085052;28;19951;-57
2023/09/22 08:47:16;;;;;;;;;;;;;;;;;;5084157;28;19912;-57
2023/09/22 08:49:42;;;;;;;;;;;;;;;;;;5081412;28;19919;-57
2023/09/22 08:52:08;;;;;;;;;;;;;;;;;;5077112;28;20353;-57
2023/09/22 08:54:34;;;;;;;;;;;;;;;;;;5091325;28;19908;-58
2023/09/22 08:57:00;;;;;;;;;;;;;;;;;;5085365;28;20348;-57
2023/09/22 08:59:27;;;;;;;;;;;;;;;;;;5086509;28;19940;-57
2023/09/22 09:01:53;;;;;;;;;;;;;;;;;;5081561;28;19916;-57
2023/09/22 09:04:19;;;;;;;;;;;;;;;;;;5091573;28;19962;-58
2023/09/22 09:06:46;;;;;;;;;;;;;;;;;;5082186;28;19920;-56
2023/09/22 09:09:12;;;;;;;;;;;;;;;;;;5086836;28;20022;-58
2023/09/22 09:11:38;;;;;;;;;;;;;;;;;;5076591;28;19908;-57
2023/09/22 09:14:04;;;;;;;;;;;;;;;;;;5086140;28;19919;-57
2023/09/22 09:16:31;;;;;;;;;;;;;;;;;;5076983;28;20342;-58
2023/09/22 09:18:57;;;;;;;;;;;;;;;;;;5086520;28;20322;-57
2023/09/22 09:21:23;;;;;;;;;;;;;;;;;;5075135;28;19959;-62
2023/09/22 09:23:49;;;;;;;;;;;;;;;;;;5087939;28;19912;-57
2023/09/22 09:26:16;;;;;;;;;;;;;;;;;;5082683;28;19921;-58
2023/09/22 09:28:42;;;;;;;;;;;;;;;;;;5086142;28;20366;-57
2023/09/22 09:31:10;;;;;;;;;;;;;;;;;;5081370;28;19994;-57
2023/09/22 09:33:36;;;;;;;;;;;;;;;;;;5088773;28;19912;-57
2023/09/22 09:36:02;;;;;;;;;;;;;;;;;;5072913;28;20283;-58
2023/09/22 09:38:28;;;;;;;;;;;;;;;;;;5087100;28;20003;-57
2023/09/22 09:40:54;;;;;;;;;;;;;;;;;;5072227;28;19974;-60
2023/09/22 09:43:20;;;;;;;;;;;;;;;;;;5082546;28;19957;-60
2023/09/22 09:45:46;;;;;;;;;;;;;;;;;;5081187;28;20351;-60
2023/09/22 09:48:14;;;;;;;;;;;;;;;;;;5077152;28;20129;-60
2023/09/22 09:50:40;;;;;;;;;;;;;;;;;;5074947;28;20001;-61
2023/09/22 09:53:06;;;;;;;;;;;;;;;;;;5074275;28;20498;-61
2023/09/22 09:55:32;;;;;;;;;;;;;;;;;;5090313;28;19908;-60
2023/09/22 09:57:58;;;;;;;;;;;;;;;;;;5082262;28;20360;-60
2023/09/22 10:00:26;;;;;;;;;;;;;;;;;;5081335;28;19916;-60
2023/09/22 10:02:55;;;;;;;;;;;;;;;;;;5075398;28;19912;-60
2023/09/22 10:05:21;;;;;;;;;;;;;;;;;;5082861;28;20000;-60
2023/09/22 10:07:47;;;;;;;;;;;;;;;;;;5078715;28;19940;-60
2023/09/22 10:10:12;;;;;;;;;;;;;;;;;;5080387;28;20430;-60
2023/09/22 10:12:38;;;;;;;;;;;;;;;;;;5075145;28;19947;-60
2023/09/22 10:15:05;;;;;;;;;;;;;;;;;;5086895;28;20015;-60
2023/09/22 10:17:31;;;;;;;;;;;;;;;;;;5084814;28;19915;-60
2023/09/22 10:19:57;;;;;;;;;;;;;;;;;;5090625;28;19951;-60
2023/09/22 10:22:22;;;;;;;;;;;;;;;;;;5074470;28;20330;-60
2023/09/22 10:24:48;;;;;;;;;;;;;;;;;;5082889;28;19909;-60
2023/09/22 10:27:14;;;;;;;;;;;;;;;;;;5073785;28;19996;-60
2023/09/22 10:29:42;;;;;;;;;;;;;;;;;;5082555;28;20344;-60
2023/09/22 10:32:08;;;;;;;;;;;;;;;;;;5076521;28;20270;-60
2023/09/22 10:34:33;;;;;;;;;;;;;;;;;;5080676;28;19916;-60
2023/09/22 10:37:00;;;;;;;;;;;;;;;;;;5076089;28;19951;-61
2023/09/22 10:39:26;;;;;;;;;;;;;;;;;;5080859;28;19916;-60
2023/09/22 10:41:52;;;;;;;;;;;;;;;;;;5078981;28;19967;-61
2023/09/22 10:44:18;;;;;;;;;;;;;;;;;;5079360;28;19908;-59
2023/09/22 10:46:44;;;;;;;;;;;;;;;;;;5076714;28;19913;-60
2023/09/22 10:49:10;;;;;;;;;;;;;;;;;;5071513;28;19999;-60
2023/09/22 10:51:36;;;;;;;;;;;;;;;;;;5082443;28;20390;-61
2023/09/22 10:54:02;;;;;;;;;;;;;;;;;;5074824;28;19913;-60
2023/09/22 10:56:28;;;;;;;;;;;;;;;;;;5091268;28;20576;-60
2023/09/22 10:58:54;;;;;;;;;;;;;;;;;;5084234;28;20003;-60
2023/09/22 11:01:22;;;;;;;;;;;;;;;;;;5078596;28;19992;-60
2023/09/22 11:03:48;;;;;;;;;;;;;;;;;;5085054;28;19912;-61
2023/09/22 11:06:14;;;;;;;;;;;;;;;;;;5089107;28;19915;-60
2023/09/22 11:08:40;;;;;;;;;;;;;;;;;;5081425;28;19995;-61
2023/09/22 11:11:06;;;;;;;;;;;;;;;;;;5089703;28;20364;-61
2023/09/22 11:13:32;;;;;;;;;;;;;;;;;;5084484;28;19908;-59
2023/09/22 11:15:57;;;;;;;;;;;;;;;;;;5075428;28;20462;-60
2023/09/22 11:18:23;;;;;;;;;;;;;;;;;;5085542;28;19919;-61
2023/09/22 11:20:50;;;;;;;;;;;;;;;;;;5080680;28;19963;-60
2023/09/22 11:23:16;;;;;;;;;;;;;;;;;;5093051;28;19916;-60
2023/09/22 11:25:41;;;;;;;;;;;;;;;;;;5089585;28;19920;-61
2023/09/22 11:28:07;;;;;;;;;;;;;;;;;;5085695;28;20368;-60
2023/09/22 11:30:34;;;;;;;;;;;;;;;;;;5088251;28;20011;-60
2023/09/22 11:33:00;;;;;;;;;;;;;;;;;;5084761;28;20363;-61
2023/09/22 11:35:25;;;;;;;;;;;;;;;;;;5079852;28;19963;-60
2023/09/22 11:37:51;;;;;;;;;;;;;;;;;;5080991;28;19985;-60
2023/09/22 11:40:17;;;;;;;;;;;;;;;;;;5088370;28;20040;-60
2023/09/22 11:42:43;;;;;;;;;;;;;;;;;;5086585;28;19981;-59
2023/09/22 11:45:09;;;;;;;;;;;;;;;;;;5093485;28;19916;-60
2023/09/22 11:47:36;;;;;;;;;;;;;;;;;;5094187;28;20436;-59
2023/09/22 11:50:03;;;;;;;;;;;;;;;;;;5093730;28;19923;-60
2023/09/22 11:52:29;;;;;;;;;;;;;;;;;;5089459;28;19916;-60
2023/09/22 11:54:54;;;;;;;;;;;;;;;;;;5085270;28;19951;-60
2023/09/22 11:57:20;;;;;;;;;;;;;;;;;;5076136;28;19912;-60
2023/09/22 11:59:48;;;;;;;;;;;;;;;;;;5086394;28;20003;-59
2023/09/22 12:02:14;;;;;;;;;;;;;;;;;;5079474;28;19924;-60
2023/09/22 12:04:40;;;;;;;;;;;;;;;;;;5079766;28;19913;-61
2023/09/22 12:07:06;;;;;;;;;;;;;;;;;;5073861;28;19916;-61
2023/09/22 12:09:32;;;;;;;;;;;;;;;;;;5078097;28;20336;-61
2023/09/22 12:11:58;;;;;;;;;;;;;;;;;;5082397;28;20003;-60
2023/09/22 12:14:24;;;;;;;;;;;;;;;;;;5091349;28;20390;-60
2023/09/22 12:16:51;;;;;;;;;;;;;;;;;;5091449;28;20377;-60
2023/09/22 12:19:19;;;;;;;;;;;;;;;;;;5084703;28;20030;-60
2023/09/22 12:21:45;;;;;;;;;;;;;;;;;;5080816;28;19999;-61
2023/09/22 12:24:10;;;;;;;;;;;;;;;;;;5081670;28;20046;-60
2023/09/22 12:26:36;;;;;;;;;;;;;;;;;;5075935;28;20017;-60
2023/09/22 12:29:05;;;;;;;;;;;;;;;;;;5087916;28;20279;-61
2023/09/22 12:31:31;;;;;;;;;;;;;;;;;;5082374;28;20243;-60
2023/09/22 12:33:57;;;;;;;;;;;;;;;;;;5079906;28;20011;-60
2023/09/22 12:36:24;;;;;;;;;;;;;;;;;;5085070;28;20392;-60
2023/09/22 12:38:49;;;;;;;;;;;;;;;;;;5086796;28;20003;-60
2023/09/22 12:41:15;;;;;;;;;;;;;;;;;;5074094;28;20489;-61
2023/09/22 12:43:41;;;;;;;;;;;;;;;;;;5083225;28;19946;-61
2023/09/22 12:46:08;;;;;;;;;;;;;;;;;;5078103;28;19957;-60
2023/09/22 12:48:34;;;;;;;;;;;;;;;;;;5082315;28;19927;-60
2023/09/22 12:51:00;;;;;;;;;;;;;;;;;;5077945;28;19963;-60
2023/09/22 12:53:25;;;;;;;;;;;;;;;;;;5074341;28;19947;-60
2023/09/22 12:55:53;;;;;;;;;;;;;;;;;;5081232;28;20006;-61
2023/09/22 12:58:19;;;;;;;;;;;;;;;;;;5077614;28;20340;-60
2023/09/22 13:00:46;;;;;;;;;;;;;;;;;;5082069;28;19944;-61
2023/09/22 13:03:13;;;;;;;;;;;;;;;;;;5084039;28;19917;-58
2023/09/22 13:05:39;;;;;;;;;;;;;;;;;;5076903;28;19997;-60
2023/09/22 13:08:05;;;;;;;;;;;;;;;;;;5073072;28;19971;-60
2023/09/22 13:10:31;;;;;;;;;;;;;;;;;;5086860;28;20378;-60
2023/09/22 13:12:56;;;;;;;;;;;;;;;;;;5079740;28;20435;-61
2023/09/22 13:15:22;;;;;;;;;;;;;;;;;;5077806;28;19961;-60
2023/09/22 13:17:48;;;;;;;;;;;;;;;;;;5074031;28;20015;-61
2023/09/22 13:20:14;;;;;;;;;;;;;;;;;;5079484;28;19951;-60
2023/09/22 13:22:41;;;;;;;;;;;;;;;;;;5083174;28;20422;-60
2023/09/22 13:25:06;;;;;;;;;;;;;;;;;;5083246;28;20375;-60
2023/09/22 13:27:32;;;;;;;;;;;;;;;;;;5078901;28;19952;-61
2023/09/22 13:29:59;;;;;;;;;;;;;;;;;;5078736;28;19908;-60
2023/09/22 13:32:25;;;;;;;;;;;;;;;;;;5086175;28;19916;-61
2023/09/22 13:34:51;;;;;;;;;;;;;;;;;;5075194;28;19999;-61
2023/09/22 13:37:18;;;;;;;;;;;;;;;;;;5083949;28;19951;-60
2023/09/22 13:39:44;;;;;;;;;;;;;;;;;;5079473;28;19963;-60
2023/09/22 13:42:10;;;;;;;;;;;;;;;;;;5072653;28;19955;-62
2023/09/22 13:44:36;;;;;;;;;;;;;;;;;;5086115;28;19944;-60
2023/09/22 13:47:02;;;;;;;;;;;;;;;;;;5075664;28;20331;-60
2023/09/22 13:49:30;;;;;;;;;;;;;;;;;;5073548;28;20392;-61
2023/09/22 13:51:56;;;;;;;;;;;;;;;;;;5082781;28;19916;-60
2023/09/22 13:54:22;;;;;;;;;;;;;;;;;;5080568;28;19919;-60
2023/09/22 13:56:48;;;;;;;;;;;;;;;;;;5078844;28;20417;-60
2023/09/22 13:59:13;;;;;;;;;;;;;;;;;;5082408;28;19917;-60
2023/09/22 14:01:39;;;;;;;;;;;;;;;;;;5077122;28;20279;-60
2023/09/22 14:04:05;;;;;;;;;;;;;;;;;;5080414;28;19947;-60
2023/09/22 14:06:31;;;;;;;;;;;;;;;;;;5091029;28;19955;-60
2023/09/22 14:08:58;;;;;;;;;;;;;;;;;;5079414;28;19982;-61
2023/09/22 14:11:24;;;;;;;;;;;;;;;;;;5074575;28;19916;-60
2023/09/22 14:13:49;;;;;;;;;;;;;;;;;;5075309;28;20392;-60
2023/09/22 14:16:15;;;;;;;;;;;;;;;;;;5079455;28;19916;-60
2023/09/22 14:18:41;;;;;;;;;;;;;;;;;;5079732;28;20011;-60
2023/09/22 14:21:08;;;;;;;;;;;;;;;;;;5077167;28;20406;-60
2023/09/22 14:23:34;;;;;;;;;;;;;;;;;;5081299;28;19916;-60
2023/09/22 14:26:02;;;;;;;;;;;;;;;;;;5071883;28;19917;-60
2023/09/22 14:28:29;;;;;;;;;;;;;;;;;;5082021;28;19916;-59
2023/09/22 14:30:55;;;;;;;;;;;;;;;;;;5072712;28;20027;-60
2023/09/22 14:33:21;;;;;;;;;;;;;;;;;;5083854;28;19995;-60
2023/09/22 14:35:47;;;;;;;;;;;;;;;;;;5072440;28;21633;-60
2023/09/22 14:38:13;;;;;;;;;;;;;;;;;;5080745;28;19923;-60
2023/09/22 14:40:39;;;;;;;;;;;;;;;;;;5085261;28;19955;-60
2023/09/22 14:43:05;;;;;;;;;;;;;;;;;;5075796;28;20022;-60
2023/09/22 14:45:31;;;;;;;;;;;;;;;;;;5081051;28;19945;-60
2023/09/22 14:47:58;;;;;;;;;;;;;;;;;;5075363;28;20387;-60
2023/09/22 14:50:25;;;;;;;;;;;;;;;;;;5083641;28;20006;-60
2023/09/22 14:52:51;;;;;;;;;;;;;;;;;;5074178;28;19927;-60
2023/09/22 14:55:17;;;;;;;;;;;;;;;;;;5082600;28;19913;-60
2023/09/22 14:57:42;;;;;;;;;;;;;;;;;;5087089;28;20433;-60
2023/09/22 15:00:12;;;;;;;;;;;;;;;;;;5087221;28;19912;-60
2023/09/22 15:02:38;;;;;;;;;;;;;;;;;;5082119;28;20288;-60
2023/09/22 15:05:04;;;;;;;;;;;;;;;;;;5084473;28;19962;-60
2023/09/22 15:07:31;;;;;;;;;;;;;;;;;;5073399;28;19912;-60
2023/09/22 15:09:57;;;;;;;;;;;;;;;;;;5083834;28;19916;-60
2023/09/22 15:12:23;;;;;;;;;;;;;;;;;;5078864;28;19966;-59
2023/09/22 15:14:49;;;;;;;;;;;;;;;;;;5078419;28;19979;-60
2023/09/22 15:17:15;;;;;;;;;;;;;;;;;;5075829;28;20042;-60
2023/09/22 15:19:41;;;;;;;;;;;;;;;;;;5088324;28;19946;-60
2023/09/22 15:22:08;;;;;;;;;;;;;;;;;;5081150;28;19989;-60
2023/09/22 15:24:35;;;;;;;;;;;;;;;;;;5076284;28;20470;-60
2023/09/22 15:27:01;;;;;;;;;;;;;;;;;;5079369;28;19923;-60
2023/09/22 15:29:27;;;;;;;;;;;;;;;;;;5076521;28;19963;-59
2023/09/22 15:31:53;;;;;;;;;;;;;;;;;;5078658;28;19930;-59
2023/09/22 15:34:22;;;;;;;;;;;;;;;;;;5078055;28;21539;-58
2023/09/22 15:36:48;;;;;;;;;;;;;;;;;;5084078;28;19977;-59
2023/09/22 15:39:14;;;;;;;;;;;;;;;;;;5077404;28;19918;-60
2023/09/22 15:41:40;;;;;;;;;;;;;;;;;;5078418;28;20668;-64
2023/09/22 15:44:06;;;;;;;;;;;;;;;;;;5084891;28;19913;-59
2023/09/22 15:46:31;;;;;;;;;;;;;;;;;;5075157;28;19913;-59
2023/09/22 15:48:57;;;;;;;;;;;;;;;;;;5083525;28;20384;-59
2023/09/22 15:51:23;;;;;;;;;;;;;;;;;;5077201;28;20392;-59
2023/09/22 15:53:50;;;;;;;;;;;;;;;;;;5083141;28;20335;-59
2023/09/22 15:56:15;;;;;;;;;;;;;;;;;;5075732;28;19956;-60
2023/09/22 15:58:41;;;;;;;;;;;;;;;;;;5079173;28;19948;-58
2023/09/22 16:01:08;;;;;;;;;;;;;;;;;;5078643;28;19912;-59
2023/09/22 16:03:34;;;;;;;;;;;;;;;;;;5082924;28;20384;-59
2023/09/22 16:06:00;;;;;;;;;;;;;;;;;;5077516;28;19999;-59
2023/09/22 16:08:26;;;;;;;;;;;;;;;;;;5079466;28;20001;-59
2023/09/22 16:10:52;;;;;;;;;;;;;;;;;;5075444;28;20046;-59
2023/09/22 16:13:18;;;;;;;;;;;;;;;;;;5076037;28;19920;-60
2023/09/22 16:15:47;;;;;;;;;;;;;;;;;;5086505;28;20316;-60
2023/09/22 16:18:13;;;;;;;;;;;;;;;;;;5079091;28;19921;-59
2023/09/22 16:20:39;;;;;;;;;;;;;;;;;;5083554;28;20010;-60
2023/09/22 16:23:05;;;;;;;;;;;;;;;;;;5078350;28;20381;-60
2023/09/22 16:25:31;;;;;;;;;;;;;;;;;;5076453;28;19941;-59
2023/09/22 16:27:57;;;;;;;;;;;;;;;;;;5077594;28;19962;-59
2023/09/22 16:30:23;;;;;;;;;;;;;;;;;;5087403;28;19956;-59
2023/09/22 16:32:49;;;;;;;;;;;;;;;;;;5074171;28;19912;-59
2023/09/22 16:35:15;;;;;;;;;;;;;;;;;;5077251;28;19961;-59
2023/09/22 16:37:41;;;;;;;;;;;;;;;;;;5084047;28;20039;-59
2023/09/22 16:40:07;;;;;;;;;;;;;;;;;;5077091;28;19916;-60